Tiempo atmosférico en la estación meteorológica de Muniesa, Teruel (800 m.)



Fecha
DESCASC
Temp. máxima en grados centígrados (hora)
DESCASC
Temp. mínima en grados centígrados (hora)
DESCASC
Temp. media en grados centígrados
DESCASC
Racha de viento máxima en m/sg (hora)
DESCASC
Velocidad máxima media en intervalos de 10 minutos(hora)
DESCASC
Precipitaciones diarias en mm
DESCASC
Precipitaciones de 00:00 a 06:00 en mm
DESCASC
Precipitaciones de 06:00 a 12:00 en mm
DESCASC
Precipitaciones de 12:00 a 18:00 en mm
DESCASC
Precipitaciones de 18:00 a 24:00 en mm
DESCASC
16-06-2019 27.3 (16:40) 9.9 (06:30) 18.6 9.44 (18:30) 5.83 (18:30) 0 0 0 0 0
15-06-2019 25.1 (18:30) 9.5 (07:10) 17.3 8.89 (01:00) 5.83 (01:00) 0 0 0 0 0
14-06-2019 27.6 (19:00) 11.1 (06:50) 19.4 10.83 (19:20) 5.28 (09:50) 0 0 0 0 0
13-06-2019 24.8 (14:30) 10.7 (00:00) 17.7 10.28 (10:10) 7.22 (10:10) 0 0 0 0 0
12-06-2019 20.6 (17:40) 3.9 (00:00) 12.3 11.39 (19:30) 6.67 (20:30) 0 0 0 0 0
11-06-2019 14.9 (19:50) 8.1 (00:00) 11.5 9.72 (18:30) 6.11 (20:30) 0.2 0 0 0.2 0
10-06-2019 21.3 (16:10) 10.2 (00:00) 15.7 9.17 (03:10) 5.83 (19:30) 0 0 0 0 0
09-06-2019 27 (16:30) 12.7 (00:00) 19.8 10.83 (21:50) 7.22 (21:50) 0 0 0 0 0
08-06-2019 25.4 (17:50) 6.3 (00:00) 15.8 12.22 (16:00) 8.06 (17:00) 0 0 0 0 0
07-06-2019 21.1 (18:10) 9.9 (00:00) 15.5 11.67 (12:40) 6.11 (12:20) 0 0 0 0 0
06-06-2019 24.4 (17:00) 6.2 (00:00) 15.3 14.17 (16:20) 8.61 (16:20) 0 0 0 0 0
05-06-2019 17.7 (00:00) 10.1 (00:00) 13.9 15 (13:00) 8.61 (14:10) 0.8 0 0 0.8 0
04-06-2019 31.8 (15:30) 17.7 (00:00) 24.8 18.06 (16:20) 7.78 (15:30) 0 0 0 0 0
03-06-2019 30 (14:00) 19.8 (00:00) 24.9 11.11 (01:50) 6.67 (16:40) 0 0 0 0 0
02-06-2019 31.1 (15:50) 16.6 (00:00) 23.9 8.33 (18:50) 5.56 (18:50) 0 0 0 0 0
01-06-2019 28.8 (16:50) 13.2 (00:00) 21 8.33 (16:50) 5 (19:40) 0 0 0 0 0
31-05-2019 27.2 (16:30) 9.5 (00:00) 18.4 8.33 (15:50) 3.61 (15:50) 0 0 0 0 0
30-05-2019 25 (17:10) 7.8 (00:00) 16.4 9.17 (00:30) 4.72 (00:30) 0 0 0 0 0
29-05-2019 17.8 (16:20) 7.4 (00:00) 12.6 15.28 (19:50) 9.72 (19:30) 0 0 0 0 0
28-05-2019 16.8 (17:40) 7.6 (00:00) 12.2 15.28 (19:20) 9.72 (18:40) 0 0 0 0 0
27-05-2019 21.6 (16:50) 8.9 (00:00) 15.3 15.28 (20:20) 8.89 (18:40) 0 0 0 0 0
26-05-2019 17.9 (17:30) 7.6 (00:00) 12.7 13.33 (19:10) 7.5 (19:30) 0 0 0 0 0
25-05-2019 17.7 (16:20) 9 (00:00) 13.4 13.89 (19:40) 8.33 (02:20) 0 0 0 0 0
24-05-2019 15.2 (00:00) 9.6 (00:00) 12.4 13.89 (20:40) 8.89 (20:40) 12 0.8 10.2 1 0
23-05-2019 25 (14:40) 12 (00:00) 18.5 11.11 (21:30) 5.83 (21:40) 0.6 0 0 0 0.6
22-05-2019 23.5 (17:00) 6.7 (00:00) 15.1 10.28 (15:50) 4.72 (15:00) 0 0 0 0 0

Gráficas

Temp. máximas Temp. mínimas Temp. medias Precipitaciones Rachas de viento máximas Velocidades máximas media en intervalos de 10 minutos

Datos horarios

Fecha y hora oficial Temperatura (ºC) Velocidad del viento (km/h) Dirección del viento Racha (km/h) Dirección de racha Precipitación (mm) Presión (hPa) Tendencia (hPa) Humedad (%)
2019-06-20 23:00:00 17 11 Noroeste 18 Norte 0 -- -- 76
2019-06-20 22:00:00 19.3 0 Calma 9 Sudeste 0 -- -- 78
2019-06-20 21:00:00 20.7 6 Este 19 Este 0 -- -- 71
2019-06-20 20:00:00 21.2 15 Este 27 Este 0 -- -- 70
2019-06-20 19:00:00 22.4 19 Este 28 Este 0 -- -- 64
2019-06-20 18:00:00 22.6 14 Nordeste 26 Norte 0 -- -- 61
2019-06-20 17:00:00 20.5 16 Norte 27 Norte 3.4 -- -- 72
2019-06-20 16:00:00 24.5 19 Nordeste 32 Nordeste 0 -- -- 46
2019-06-20 15:00:00 25.1 15 Nordeste 31 Este 0 -- -- 45
2019-06-20 14:00:00 25.1 12 Nordeste 29 Nordeste 0 -- -- 45
2019-06-20 13:00:00 24.3 8 Nordeste 22 Nordeste 0 -- -- 47
2019-06-20 12:00:00 22.6 8 Nordeste 16 Norte 0 -- -- 51
2019-06-20 11:00:00 21 8 Noroeste 17 Noroeste 0 -- -- 58
2019-06-20 10:00:00 19.5 10 Norte 17 Noroeste 0 -- -- 63
2019-06-20 09:00:00 17.5 10 Noroeste 17 Noroeste 0 -- -- 72
2019-06-20 08:00:00 15.9 9 Noroeste 14 Noroeste 0 -- -- 78
2019-06-20 07:00:00 15.1 9 Noroeste 17 Oeste 0 -- -- 80
2019-06-20 06:00:00 15.6 7 Noroeste 11 Noroeste 0 -- -- 76
2019-06-20 05:00:00 16.5 8 Noroeste 16 Noroeste 0 -- -- 71
2019-06-20 04:00:00 18.5 4 Noroeste 11 Oeste 0 -- -- 58
2019-06-20 03:00:00 18.9 0 Calma 10 Oeste 0 -- -- 56
2019-06-20 02:00:00 19.9 6 Oeste 13 Noroeste 0 -- -- 53
2019-06-20 01:00:00 21.1 8 Noroeste 23 Noroeste 0 -- -- 50
2019-06-20 00:00:00 23.1 3 Oeste 7 Sudoeste 0 -- -- 43
2019-06-19 23:00:00 23.6 6 Oeste 10 Oeste 0 -- -- 42
2019-06-19 22:00:00 24.8 5 Noroeste 12 Nordeste 0 -- -- 40
2019-06-19 21:00:00 26.3 8 Nordeste 19 Nordeste 0 -- -- 37
2019-06-19 20:00:00 27 8 Nordeste 21 Nordeste 0 -- -- 36
2019-06-19 19:00:00 26.9 16 Nordeste 28 Norte 0 -- -- 36
2019-06-19 18:00:00 28.5 15 Nordeste 29 Nordeste 0 -- -- 32
2019-06-19 17:00:00 29.9 12 Sudoeste 21 Sudoeste 0 -- -- 28
2019-06-19 16:00:00 29.7 13 Oeste 30 Oeste 0 -- -- 29
2019-06-19 15:00:00 28.9 15 Sudoeste -- -- -- -- -- 29
2019-06-19 14:00:00 -- -- -- -- -- -- -- -- --
2019-06-19 13:00:00 26.3 14 Sudoeste -- -- -- -- -- 37
2019-06-19 12:00:00 -- -- -- -- -- -- -- -- --
2019-06-19 11:00:00 -- -- -- -- -- -- -- -- --
2019-06-19 10:00:00 -- -- -- -- -- -- -- -- --
2019-06-19 09:00:00 -- -- -- -- -- -- -- -- --
2019-06-19 08:00:00 -- -- -- -- -- -- -- -- --
2019-06-19 07:00:00 -- -- -- -- -- -- -- -- --
2019-06-19 06:00:00 -- -- -- -- -- -- -- -- --
2019-06-19 05:00:00 -- -- -- -- -- -- -- -- --
2019-06-19 04:00:00 -- -- -- -- -- -- -- -- --
2019-06-19 03:00:00 -- -- -- -- -- -- -- -- --
2019-06-19 02:00:00 -- -- -- -- -- -- -- -- --
2019-06-19 01:00:00 -- -- -- -- -- -- -- -- --
2019-06-19 00:00:00 -- -- -- -- -- -- -- -- --
2019-06-18 23:00:00 -- -- -- -- -- -- -- -- --
2019-06-18 22:00:00 -- -- -- -- -- -- -- -- --
2019-06-18 21:00:00 -- -- -- -- -- -- -- -- --
2019-06-18 20:00:00 -- -- -- -- -- -- -- -- --
2019-06-18 19:00:00 31 17 Sudoeste 37 Sudoeste 0 -- -- 20
2019-06-18 18:00:00 32.5 22 Sudoeste 37 Sur 0 -- -- 18
2019-06-18 17:00:00 32.4 18 Sudoeste 38 Sur 0 -- -- 20
2019-06-18 16:00:00 31.9 20 Sur 42 Sudoeste 0 -- -- 19
2019-06-18 15:00:00 30.9 22 Sur 42 Sur 0 -- -- 20
2019-06-18 14:00:00 31.2 20 Sur 39 Sur 0 -- -- 21
2019-06-18 13:00:00 30.7 21 Sur 36 Sur 0 -- -- 21
2019-06-18 12:00:00 28.2 4 Oeste 17 Sur 0 -- -- 25
2019-06-18 11:00:00 26.4 10 Sur 27 Sur 0 -- -- 28
2019-06-18 10:00:00 25.8 18 Sur 27 Sur 0 -- -- 28
2019-06-18 09:00:00 23.9 6 Sur 18 Sudeste 0 -- -- 32
2019-06-18 08:00:00 22.1 8 Sur 17 Sur 0 -- -- 36
2019-06-18 07:00:00 21.3 6 Norte 26 Sur 0 -- -- 38
2019-06-18 06:00:00 22.1 17 Sur 32 Sur 0 -- -- 35
2019-06-18 05:00:00 22.4 20 Sur 37 Sudoeste 0 -- -- 37
2019-06-18 04:00:00 22.4 21 Sudoeste 34 Sur 0 -- -- 38
2019-06-18 03:00:00 22.5 17 Sudoeste 35 Sudoeste 0 -- -- 39
2019-06-18 02:00:00 22.9 23 Sudoeste 37 Sudoeste 0 -- -- 40
2019-06-18 01:00:00 23.3 18 Sudoeste 34 Sur 0 -- -- 40
2019-06-18 00:00:00 23.7 19 Sur 31 Sudoeste 0 -- -- 39
2019-06-17 23:00:00 22.6 12 Sudeste 25 Este 0 -- -- 41
2019-06-17 22:00:00 24.1 20 Este 31 Este 0 -- -- 37
2019-06-17 21:00:00 26.2 21 Este 34 Este 0 -- -- 38
2019-06-17 20:00:00 28.3 19 Sudeste 36 Este 0 -- -- 36
2019-06-17 19:00:00 30 22 Este 35 Este 0 -- -- 29
2019-06-17 18:00:00 30.4 13 Nordeste 36 Este 0 -- -- 25
2019-06-17 17:00:00 30.1 15 Nordeste 37 Este 0 -- -- 24
2019-06-17 16:00:00 29.9 14 Nordeste 29 Nordeste 0 -- -- 25
2019-06-17 15:00:00 29.3 14 Norte 31 Norte 0 -- -- 26
2019-06-17 14:00:00 29.1 14 Sudeste 24 Este 0 -- -- 24
2019-06-17 13:00:00 27.8 5 Sudeste 22 Este 0 -- -- 27
2019-06-17 12:00:00 27.4 7 Noroeste 18 Sur 0 -- -- 27
2019-06-17 11:00:00 26 3 Nordeste 10 Sudeste 0 -- -- 30
2019-06-17 10:00:00 24.6 3 Este 9 Sur 0 -- -- 35
2019-06-17 09:00:00 22.5 4 Sudoeste 12 Sur 0 -- -- 42
2019-06-17 08:00:00 17.9 9 Sur 13 Sur 0 -- -- 60
2019-06-17 07:00:00 16 9 Sur 14 Sur 0 -- -- 64
2019-06-17 06:00:00 16 10 Sur 15 Sur 0 -- -- 63
2019-06-17 05:00:00 16.5 9 Sur 14 Sur 0 -- -- 60
2019-06-17 04:00:00 16.6 10 Sur 15 Sur 0 -- -- 60
2019-06-17 03:00:00 17.6 10 Sur 13 Sur 0 -- -- 57
2019-06-17 02:00:00 18.5 4 Sur 13 Sudeste 0 -- -- 54
2019-06-17 01:00:00 18.4 7 Sudeste 11 Sudeste 0 -- -- 55
2019-06-17 00:00:00 19.5 5 Sur 13 Sudeste 0 -- -- 53
2019-06-16 23:00:00 19.7 5 Sudeste 17 Sudeste 0 -- -- 54
2019-06-16 22:00:00 21.6 11 Este 15 Este 0 -- -- 47
2019-06-16 21:00:00 23.5 9 Este 23 Este 0 -- -- 44
2019-06-16 20:00:00 24.5 17 Nordeste 31 Nordeste 0 -- -- 36
2019-06-16 19:00:00 26 18 Este 34 Este 0 -- -- 32
2019-06-16 18:00:00 26.7 15 Este 33 Este 0 -- -- 32
2019-06-16 17:00:00 27.1 17 Nordeste 33 Nordeste 0 -- -- 31
2019-06-16 16:00:00 26.3 18 Nordeste 34 Nordeste 0 -- -- 32
2019-06-16 15:00:00 25.3 13 Nordeste 30 Nordeste 0 -- -- 33
2019-06-16 14:00:00 25.4 12 Este 25 Este 0 -- -- 32
2019-06-16 13:00:00 24.1 12 Este 24 Este 0 -- -- 35
2019-06-16 12:00:00 21.7 9 Nordeste 19 Este 0 -- -- 38
2019-06-16 11:00:00 20.2 9 Este 18 Este 0 -- -- 42
2019-06-16 10:00:00 18.1 6 Este 14 Este 0 -- -- 47
2019-06-16 09:00:00 16.9 4 Este 8 Este 0 -- -- 50
2019-06-16 08:00:00 12.8 3 Sur 10 Sur 0 -- -- 63
2019-06-16 07:00:00 10 9 Sur 11 Sur 0 -- -- 70
2019-06-16 06:00:00 10 9 Sur 12 Sur 0 -- -- 70
2019-06-16 05:00:00 10.4 5 Sur 9 Sur 0 -- -- 68
2019-06-16 04:00:00 10.9 5 Sur 8 Sur 0 -- -- 67
2019-06-16 03:00:00 11.9 3 Sur 5 Sur 0 -- -- 63
2019-06-16 02:00:00 13.6 4 Oeste 9 Oeste 0 -- -- 58
2019-06-16 01:00:00 14.3 5 Oeste 10 Noroeste 0 -- -- 56
2019-06-16 00:00:00 14.9 3 Noroeste 10 Noroeste 0 -- -- 52
2019-06-15 23:00:00 16.3 4 Norte 10 Noroeste 0 -- -- 48
2019-06-15 22:00:00 18.1 6 Norte 21 Nordeste 0 -- -- 44
2019-06-15 21:00:00 20.7 12 Nordeste 26 Nordeste 0 -- -- 39
2019-06-15 20:00:00 22.4 17 Nordeste 30 Norte 0 -- -- 35
2019-06-15 19:00:00 23.8 16 Nordeste 26 Nordeste 0 -- -- 32
2019-06-15 18:00:00 24.7 6 Noroeste 28 Noroeste 0 -- -- 27
2019-06-15 17:00:00 24.4 12 Norte 24 Noroeste 0 -- -- 28
2019-06-15 16:00:00 23.7 6 Este 21 Noroeste 0 -- -- 29
2019-06-15 15:00:00 22.6 10 Oeste 23 Oeste 0 -- -- 30
2019-06-15 14:00:00 22.2 9 Oeste 24 Noroeste 0 -- -- 30
2019-06-15 13:00:00 20.7 10 Oeste 25 Oeste 0 -- -- 32
2019-06-15 12:00:00 20.3 10 Noroeste 22 Noroeste 0 -- -- 35
2019-06-15 11:00:00 18.5 8 Noroeste 20 Oeste 0 -- -- 41
2019-06-15 10:00:00 16.4 11 Noroeste 21 Noroeste 0 -- -- 46
2019-06-15 09:00:00 14.2 9 Oeste 21 Oeste 0 -- -- 59
2019-06-15 08:00:00 11.6 5 Oeste 9 Oeste 0 -- -- 81
2019-06-15 07:00:00 9.7 2 Sur 9 Oeste 0 -- -- 86
2019-06-15 06:00:00 10.5 4 Oeste 13 Noroeste 0 -- -- 85
2019-06-15 05:00:00 11.2 9 Noroeste 19 Sudoeste 0 -- -- 79
2019-06-15 04:00:00 14.7 12 Sudoeste 23 Oeste 0 -- -- 40
2019-06-15 03:00:00 15.8 14 Oeste 28 Oeste 0 -- -- 37
2019-06-15 02:00:00 17.2 19 Oeste 30 Oeste 0 -- -- 33
2019-06-15 01:00:00 18.4 21 Sudoeste 32 Sudoeste 0 -- -- 32
2019-06-15 00:00:00 18.3 13 Sudoeste 21 Sudoeste 0 -- -- 32
2019-06-14 23:00:00 19.3 10 Sudoeste 18 Oeste 0 -- -- 29
2019-06-14 22:00:00 21.4 10 Sudoeste 19 Sudoeste 0 -- -- 28
2019-06-14 21:00:00 24.7 13 Oeste 30 Oeste 0 -- -- 24
2019-06-14 20:00:00 26.9 14 Oeste 39 Oeste 0 -- -- 24
2019-06-14 19:00:00 27.6 13 Oeste 31 Noroeste 0 -- -- 26
2019-06-14 18:00:00 26.2 12 Sur 26 Sudeste 0 -- -- 36
2019-06-14 17:00:00 26 12 Este 23 Sudoeste 0 -- -- 40
2019-06-14 16:00:00 25 8 Este 20 Este 0 -- -- 43
2019-06-14 15:00:00 23 10 Este 21 Este 0 -- -- 52
2019-06-14 14:00:00 22.2 8 Nordeste 15 Nordeste 0 -- -- 54
2019-06-14 13:00:00 19.9 4 Norte 6 Norte 0 -- -- 61
2019-06-14 12:00:00 18.8 3 Norte 13 Nordeste 0 -- -- 63
2019-06-14 11:00:00 17.4 7 Nordeste 20 Sur 0 -- -- 70
2019-06-14 10:00:00 12.9 16 Sudeste 32 Este 0 -- -- 82
2019-06-14 09:00:00 13.7 7 Oeste 17 Noroeste 0 -- -- 68
2019-06-14 08:00:00 12.2 3 Sudoeste 10 Sur 0 -- -- 73
2019-06-14 07:00:00 11.2 2 Noroeste 10 Norte 0 -- -- 57
2019-06-14 06:00:00 11.3 6 Noroeste 13 Oeste 0 -- -- 65
2019-06-14 05:00:00 11.3 6 Oeste 11 Oeste 0 -- -- 48
2019-06-14 04:00:00 11.7 4 Oeste 8 Oeste 0 -- -- 57
2019-06-14 03:00:00 12.7 5 Norte 9 Norte 0 -- -- 62
2019-06-14 02:00:00 13.2 3 Noroeste 5 Noroeste 0 -- -- 62
2019-06-14 01:00:00 13.5 4 Norte 9 Norte 0 -- -- 65
2019-06-14 00:00:00 15.2 4 Norte 9 Norte 0 -- -- 66
2019-06-13 23:00:00 17.5 5 Este 15 Sudeste 0 -- -- 67
2019-06-13 22:00:00 19.1 12 Este 24 Este 0 -- -- 62
2019-06-13 21:00:00 21.1 15 Este 31 Nordeste 0 -- -- 56
2019-06-13 20:00:00 22.5 22 Nordeste 35 Nordeste 0 -- -- 52
2019-06-13 19:00:00 23.6 18 Este 29 Nordeste 0 -- -- 47
2019-06-13 18:00:00 23.8 17 Este 32 Nordeste 0 -- -- 45
2019-06-13 17:00:00 24.2 21 Nordeste 36 Nordeste 0 -- -- 42
2019-06-13 16:00:00 23.8 22 Nordeste 35 Nordeste 0 -- -- 44
2019-06-13 15:00:00 23.9 13 Nordeste 25 Nordeste 0 -- -- 42
2019-06-13 14:00:00 24.6 10 Oeste 27 Norte 0 -- -- 39
2019-06-13 13:00:00 22.6 16 Este 33 Nordeste 0 -- -- 47
2019-06-13 12:00:00 21.8 21 Este 33 Este 0 -- -- 46
2019-06-13 11:00:00 21.4 22 Sur 37 Sur 0 -- -- 48
2019-06-13 10:00:00 19.6 23 Sur 36 Sur 0 -- -- 54
2019-06-13 09:00:00 16.2 11 Este 18 Este 0 -- -- 56
2019-06-13 08:00:00 12.1 6 Nordeste 13 Nordeste 0 -- -- 70
2019-06-13 07:00:00 11.5 5 Nordeste 17 Sur 0 -- -- 72
2019-06-13 06:00:00 14.1 12 Sudeste 33 Sudeste 0 -- -- 69
2019-06-13 05:00:00 13.2 8 Sudeste 21 Sudeste 0 -- -- 70
2019-06-13 04:00:00 12.7 11 Sudeste 25 Sudeste 0 -- -- 66
2019-06-13 03:00:00 12.8 10 Sudeste 16 Sudeste 0 -- -- 53
2019-06-13 02:00:00 11.2 8 Este 19 Sur 0 -- -- 61
2019-06-13 01:00:00 12.7 12 Sudeste 18 Sudeste 0 -- -- 57
2019-06-13 00:00:00 12.7 12 Sudeste 21 Sudeste 0 -- -- 59
2019-06-12 23:00:00 13.7 13 Este 27 Este 0 -- -- 58
2019-06-12 22:00:00 15.4 18 Este 30 Este 0 -- -- 56
2019-06-12 21:00:00 17.7 18 Este 33 Este 0 -- -- 50
2019-06-12 20:00:00 19.2 23 Nordeste 41 Este 0 -- -- 34
2019-06-12 19:00:00 20 20 Este 34 Nordeste 0 -- -- 33
2019-06-12 18:00:00 20.5 22 Este 36 Este 0 -- -- 32
2019-06-12 17:00:00 20 16 Nordeste 30 Este 0 -- -- 33
2019-06-12 16:00:00 19.1 12 Norte 31 Este 0 -- -- 35
2019-06-12 15:00:00 19.1 6 Sudoeste 24 Nordeste 0 -- -- 36
2019-06-12 14:00:00 18.3 5 Norte 15 Nordeste 0 -- -- 39
2019-06-12 13:00:00 16 8 Nordeste 24 Nordeste 0 -- -- 42
2019-06-12 12:00:00 15.6 12 Este 23 Este 0 -- -- 47
2019-06-12 11:00:00 13.7 8 Este 19 Este 0 -- -- 53
2019-06-12 10:00:00 11.9 6 Este 14 Sudeste 0 -- -- 58
2019-06-12 09:00:00 9.9 8 Sudeste 13 Sudeste 0 -- -- 66
2019-06-12 08:00:00 6.6 4 Sur 13 Sur 0 -- -- 80
2019-06-12 07:00:00 4 8 Sur 13 Sur 0 -- -- 86
2019-06-12 06:00:00 4.1 9 Sur 12 Sur 0 -- -- 86
2019-06-12 05:00:00 4.3 6 Sur 9 Sur 0 -- -- 86
2019-06-12 04:00:00 5 6 Sur 9 Sur 0 -- -- 84
2019-06-12 03:00:00 5.5 8 Sur 10 Sur 0 -- -- 82
2019-06-12 02:00:00 6.7 4 Oeste 13 Oeste 0 -- -- 79
2019-06-12 01:00:00 7.8 6 Oeste 14 Oeste 0 -- -- 75
2019-06-12 00:00:00 8.3 9 Oeste 16 Oeste 0 -- -- 72
2019-06-11 23:00:00 9.3 8 Oeste 22 Noroeste 0 -- -- 66
2019-06-11 22:00:00 10.6 12 Noroeste 26 Noroeste 0 -- -- 59
2019-06-11 21:00:00 12.5 17 Noroeste 33 Noroeste 0 -- -- 51
2019-06-11 20:00:00 14.7 20 Noroeste 34 Noroeste 0 -- -- 45
2019-06-11 19:00:00 14.2 11 Noroeste 35 Noroeste 0 -- -- 48
2019-06-11 18:00:00 14 18 Noroeste 28 Noroeste 0 -- -- 49
2019-06-11 17:00:00 12.9 14 Noroeste 30 Oeste 0 -- -- 60
2019-06-11 16:00:00 12.1 9 Oeste 18 Oeste 0.2 -- -- 72
2019-06-11 15:00:00 10 9 Noroeste 24 Noroeste 0 -- -- 82
2019-06-11 14:00:00 8.8 12 Noroeste 25 Oeste 0 -- -- 85
2019-06-11 13:00:00 8.4 15 Noroeste 31 Noroeste 0 -- -- 82
2019-06-11 12:00:00 8.3 17 Noroeste 31 Noroeste 0 -- -- 82
2019-06-11 11:00:00 8.1 15 Noroeste 26 Oeste 0 -- -- 81
2019-06-11 10:00:00 8.2 12 Noroeste 26 Noroeste 0 -- -- 80
2019-06-11 09:00:00 8.7 12 Noroeste 22 Noroeste 0 -- -- 76
2019-06-11 08:00:00 8.2 14 Noroeste 24 Noroeste 0 -- -- 79
2019-06-11 07:00:00 8.2 11 Noroeste 21 Noroeste 0 -- -- 80
2019-06-11 06:00:00 8.7 10 Noroeste 22 Noroeste 0 -- -- 74
2019-06-11 05:00:00 9.3 11 Noroeste 25 Noroeste 0 -- -- 64
2019-06-11 04:00:00 10.1 10 Noroeste 21 Noroeste 0 -- -- 61
2019-06-11 03:00:00 10.3 10 Noroeste 16 Noroeste 0 -- -- 59
2019-06-11 02:00:00 10.2 8 Oeste 14 Oeste 0 -- -- 59
2019-06-11 01:00:00 10.1 8 Oeste 12 Oeste 0 -- -- 61
2019-06-11 00:00:00 10.9 7 Oeste 17 Oeste 0 -- -- 59
2019-06-10 23:00:00 11.8 12 Noroeste 32 Noroeste 0 -- -- 58
2019-06-10 22:00:00 12.9 20 Noroeste 31 Noroeste 0 -- -- 57
2019-06-10 21:00:00 14.8 16 Noroeste 28 Noroeste 0 -- -- 53
2019-06-10 20:00:00 16 17 Noroeste 33 Noroeste 0 -- -- 50
2019-06-10 19:00:00 17.5 19 Noroeste 32 Norte 0 -- -- 47
2019-06-10 18:00:00 19.3 19 Noroeste 32 Noroeste 0 -- -- 44
2019-06-10 17:00:00 20.9 19 Norte 32 Norte 0 -- -- 42
2019-06-10 16:00:00 20.6 16 Norte 32 Norte 0 -- -- 43
2019-06-10 15:00:00 19.9 15 Norte 33 Norte 0 -- -- 45
2019-06-10 14:00:00 19.4 16 Norte 31 Nordeste 0 -- -- 48
2019-06-10 13:00:00 17.7 13 Norte 27 Norte 0 -- -- 55
2019-06-10 12:00:00 16.4 11 Noroeste 24 Noroeste 0 -- -- 59
2019-06-10 11:00:00 14.3 10 Noroeste 23 Noroeste 0 -- -- 67
2019-06-10 10:00:00 12.9 13 Noroeste 19 Noroeste 0 -- -- 72
2019-06-10 09:00:00 11.5 8 Noroeste 23 Noroeste 0 -- -- 76
2019-06-10 08:00:00 10.9 14 Noroeste 24 Noroeste 0 -- -- 79
2019-06-10 07:00:00 10.6 12 Noroeste 22 Noroeste 0 -- -- 82
2019-06-10 06:00:00 10.3 13 Noroeste 31 Noroeste 0 -- -- 83
2019-06-10 05:00:00 10.8 15 Noroeste 28 Oeste 0 -- -- 82
2019-06-10 04:00:00 11 12 Noroeste 33 Noroeste 0 -- -- 82
2019-06-10 03:00:00 11.3 14 Noroeste 32 Oeste 0 -- -- 81
2019-06-10 02:00:00 11.9 13 Noroeste 32 Noroeste 0 -- -- 78
2019-06-10 01:00:00 12.6 16 Noroeste 30 Oeste 0 -- -- 77
2019-06-10 00:00:00 13.6 15 Noroeste 30 Noroeste 0 -- -- 74
2019-06-09 23:00:00 15.3 21 Noroeste 34 Noroeste 0 -- -- 68
2019-06-09 22:00:00 18.7 22 Noroeste 39 Noroeste 0 -- -- 59
2019-06-09 21:00:00 22.5 3 Norte 10 Nordeste 0 -- -- 37
2019-06-09 20:00:00 24.3 8 Nordeste 17 Este 0 -- -- 33
2019-06-09 19:00:00 25 8 Norte 19 Nordeste 0 -- -- 33
2019-06-09 18:00:00 25.3 5 Este 21 Norte 0 -- -- 32
2019-06-09 17:00:00 26.5 15 Nordeste 26 Norte 0 -- -- 31
2019-06-09 16:00:00 26.2 6 Sudoeste 24 Norte 0 -- -- 32
2019-06-09 15:00:00 26.3 15 Norte 25 Noroeste 0 -- -- 33
2019-06-09 14:00:00 25.5 11 Norte 22 Norte 0 -- -- 35
2019-06-09 13:00:00 24.9 8 Norte 20 Norte 0 -- -- 36
2019-06-09 12:00:00 23.4 9 Norte 19 Norte 0 -- -- 38
2019-06-09 11:00:00 22.5 8 Norte 17 Norte 0 -- -- 39
2019-06-09 10:00:00 21.1 5 Noroeste 15 Sur 0 -- -- 41
2019-06-09 09:00:00 18.5 9 Sur 14 Sur 0 -- -- 46
2019-06-09 08:00:00 13.4 6 Sudeste 10 Sudeste 0 -- -- 61
2019-06-09 07:00:00 12.7 2 Sudeste 6 Sur 0 -- -- 63
2019-06-09 06:00:00 12.8 2 Oeste 9 Noroeste 0 -- -- 61
2019-06-09 05:00:00 13.1 5 Noroeste 10 Noroeste 0 -- -- 59
2019-06-09 04:00:00 13.8 7 Noroeste 12 Norte 0 -- -- 57
2019-06-09 03:00:00 15.8 7 Este 10 Este 0 -- -- 52
2019-06-09 02:00:00 16.3 7 Este 11 Sudeste 0 -- -- 49
2019-06-09 01:00:00 17.5 2 Sudeste 13 Sur 0 -- -- 46
2019-06-09 00:00:00 17.6 6 Este 17 Sudeste 0 -- -- 47
2019-06-08 23:00:00 19.2 11 Sur 22 Sudeste 0 -- -- 42
2019-06-08 22:00:00 18.7 9 Sudeste 23 Este 0 -- -- 46
2019-06-08 21:00:00 20.5 13 Este 28 Este 0 -- -- 42
2019-06-08 20:00:00 21.8 22 Este 33 Sudeste 0 -- -- 40
2019-06-08 19:00:00 24.1 19 Sur 35 Sudeste 0 -- -- 37
2019-06-08 18:00:00 25 24 Sur 40 Este 0 -- -- 37
2019-06-08 17:00:00 24.2 29 Este 44 Nordeste 0 -- -- 38
2019-06-08 16:00:00 23.3 28 Este 44 Nordeste 0 -- -- 40
2019-06-08 15:00:00 23.4 23 Este 40 Este 0 -- -- 38
2019-06-08 14:00:00 21.8 21 Este 37 Nordeste 0 -- -- 41
2019-06-08 13:00:00 20.3 17 Este 29 Sudeste 0 -- -- 46
2019-06-08 12:00:00 18.7 15 Este 27 Este 0 -- -- 50
2019-06-08 11:00:00 18 13 Este 24 Este 0 -- -- 53
2019-06-08 10:00:00 15.5 6 Este 17 Este 0 -- -- 57
2019-06-08 09:00:00 12.8 4 Noroeste 7 Norte 0 -- -- 55
2019-06-08 08:00:00 10.2 0 Calma 11 Sudeste 0 -- -- 63
2019-06-08 07:00:00 6.4 3 Sur 5 Sur 0 -- -- 72
2019-06-08 06:00:00 6.6 4 Sur 6 Sur 0 -- -- 71
2019-06-08 05:00:00 7.4 0 Calma 4 Sudoeste 0 -- -- 68
2019-06-08 04:00:00 8.7 2 Sudoeste 5 Sudoeste 0 -- -- 63
2019-06-08 03:00:00 9.1 3 Sudoeste 7 Sur 0 -- -- 57
2019-06-08 02:00:00 10 3 Sur 9 Sur 0 -- -- 53
2019-06-08 01:00:00 10.7 3 Sur 9 Sur 0 -- -- 52
2019-06-08 00:00:00 11.8 5 Sur 8 Sur 0 -- -- 48
2019-06-07 23:00:00 13.8 3 Nordeste 10 Noroeste 0 -- -- 41
2019-06-07 22:00:00 15.8 7 Noroeste 15 Oeste 0 -- -- 38
2019-06-07 21:00:00 18.2 11 Noroeste 24 Noroeste 0 -- -- 33
2019-06-07 20:00:00 20.2 15 Noroeste 35 Noroeste 0 -- -- 30
2019-06-07 19:00:00 20.9 19 Oeste 37 Oeste 0 -- -- 29
2019-06-07 18:00:00 20.9 19 Oeste 41 Oeste 0 -- -- 30
2019-06-07 17:00:00 20.4 21 Oeste 35 Oeste 0 -- -- 30
2019-06-07 16:00:00 20.2 17 Noroeste 38 Noroeste 0 -- -- 33
2019-06-07 15:00:00 19.2 17 Noroeste 36 Noroeste 0 -- -- 36
2019-06-07 14:00:00 18.6 17 Noroeste 31 Oeste 0 -- -- 37
2019-06-07 13:00:00 17.7 18 Oeste 42 Sudoeste 0 -- -- 39
2019-06-07 12:00:00 15.1 12 Oeste 31 Oeste 0 -- -- 54
2019-06-07 11:00:00 12.2 16 Oeste 29 Oeste 0 -- -- 61
2019-06-07 10:00:00 11 20 Oeste 35 Oeste 0 -- -- 65
2019-06-07 09:00:00 9.9 16 Oeste 35 Oeste 0 -- -- 72
2019-06-07 08:00:00 12.3 15 Oeste 30 Noroeste 0 -- -- 67
2019-06-07 07:00:00 11.7 6 Sur 13 Sudeste 0 -- -- 69
2019-06-07 06:00:00 12.1 5 Sur 14 Sudeste 0 -- -- 68
2019-06-07 05:00:00 12.5 10 Sudeste 20 Este 0 -- -- 68
2019-06-07 04:00:00 13.2 14 Sudeste 21 Este 0 -- -- 67
2019-06-07 03:00:00 13 10 Sudeste 17 Este 0 -- -- 66
2019-06-07 02:00:00 14.3 8 Sudeste 22 Sudeste 0 -- -- 59
2019-06-07 01:00:00 15.7 15 Sudeste 27 Sudeste 0 -- -- 51
2019-06-07 00:00:00 16.3 14 Sudeste 36 Sudeste 0 -- -- 46
2019-06-06 23:00:00 17.4 26 Sur 44 Sur 0 -- -- 43
2019-06-06 22:00:00 18.6 30 Sur 45 Sur 0 -- -- 46
2019-06-06 21:00:00 20.5 26 Sur 43 Sur 0 -- -- 41
2019-06-06 20:00:00 21.9 26 Sur 45 Sudeste 0 -- -- 39
2019-06-06 19:00:00 23.3 21 Sur 43 Sur 0 -- -- 34
2019-06-06 18:00:00 23.4 24 Sur 46 Sur 0 -- -- 29
2019-06-06 17:00:00 24.4 27 Sur 51 Sur 0 -- -- 26
2019-06-06 16:00:00 23.5 23 Sudoeste 40 Sur 0 -- -- 27
2019-06-06 15:00:00 23 21 Sur 42 Sur 0 -- -- 28
2019-06-06 14:00:00 22.8 24 Sur 40 Sur 0 -- -- 28
2019-06-06 13:00:00 21.3 16 Sur 37 Sur 0 -- -- 30
2019-06-06 12:00:00 20.3 17 Sur 34 Sur 0 -- -- 30
2019-06-06 11:00:00 18.2 18 Sudoeste 32 Sur 0 -- -- 37
2019-06-06 10:00:00 16.1 10 Sudeste 18 Este 0 -- -- 51
2019-06-06 09:00:00 12.5 11 Sudeste 17 Sudeste 0 -- -- 65
2019-06-06 08:00:00 8.7 3 Sur 10 Sur 0 -- -- 79
2019-06-06 07:00:00 6.4 8 Sur 12 Sur 0 -- -- 85
2019-06-06 06:00:00 6.3 6 Sur 10 Sur 0 -- -- 86
2019-06-06 05:00:00 6.5 6 Sur 8 Sur 0 -- -- 86
2019-06-06 04:00:00 7 4 Sur 6 Sudoeste 0 -- -- 84
2019-06-06 03:00:00 7.8 2 Sur 5 Sur 0 -- -- 83
2019-06-06 02:00:00 8.9 2 Sur 9 Oeste 0 -- -- 81
2019-06-06 01:00:00 9.2 3 Oeste 8 Sur 0 -- -- 80
2019-06-06 00:00:00 10.1 3 Sudoeste 9 Oeste 0 -- -- 75
2019-06-05 23:00:00 11.1 5 Oeste 13 Noroeste 0 -- -- 74
2019-06-05 22:00:00 11.8 9 Noroeste 23 Noroeste 0 -- -- 73
2019-06-05 21:00:00 13.7 17 Noroeste 28 Noroeste 0 -- -- 59
2019-06-05 20:00:00 15.9 14 Noroeste 27 Norte 0 -- -- 52
2019-06-05 19:00:00 16.6 19 Noroeste 38 Noroeste 0 -- -- 50
2019-06-05 18:00:00 16.8 16 Noroeste 32 Oeste 0 -- -- 48
2019-06-05 17:00:00 17.1 22 Noroeste 40 Oeste 0 -- -- 49
2019-06-05 16:00:00 15.4 25 Noroeste 45 Noroeste 0 -- -- 54
2019-06-05 15:00:00 13.9 24 Noroeste 47 Noroeste 0 -- -- 64
2019-06-05 14:00:00 12.7 27 Noroeste 49 Oeste 0 -- -- 78
2019-06-05 13:00:00 11.1 26 Noroeste 54 Oeste 0.8 -- -- 80
2019-06-05 12:00:00 14.1 23 Noroeste 35 Noroeste 0 -- -- 72
2019-06-05 11:00:00 14.5 23 Noroeste 37 Noroeste 0 -- -- 72
2019-06-05 10:00:00 13.1 14 Noroeste 37 Oeste 0 -- -- 80
2019-06-05 09:00:00 12.4 4 Norte 7 Oeste 0 -- -- 76
2019-06-05 08:00:00 11.5 4 Oeste 9 Noroeste 0 -- -- 78
2019-06-05 07:00:00 10.6 4 Noroeste 11 Noroeste 0 -- -- 82
2019-06-05 06:00:00 10.8 9 Noroeste 17 Noroeste 0 -- -- 81
2019-06-05 05:00:00 11.5 5 Noroeste 11 Noroeste 0 -- -- 81
2019-06-05 04:00:00 12.4 6 Noroeste 14 Oeste 0 -- -- 79
2019-06-05 03:00:00 13.4 6 Noroeste 20 Noroeste 0 -- -- 77
2019-06-05 02:00:00 14.5 10 Noroeste 19 Noroeste 0 -- -- 73
2019-06-05 01:00:00 15.8 13 Noroeste 21 Noroeste 0 -- -- 68
2019-06-05 00:00:00 17.7 13 Noroeste 35 Noroeste 0 -- -- 64
2019-06-04 23:00:00 23 14 Oeste 37 Sur 0 -- -- 49
2019-06-04 22:00:00 25.7 22 Sur 35 Sur 0 -- -- 36
2019-06-04 21:00:00 28.2 16 Sudoeste 33 Sudoeste 0 -- -- 24
2019-06-04 20:00:00 28.9 19 Sudoeste 32 Sudoeste 0 -- -- 21
2019-06-04 19:00:00 29.9 21 Sudoeste 36 Sudoeste 0 -- -- 19
2019-06-04 18:00:00 31.1 18 Sudoeste 43 Sudoeste 0 -- -- 19
2019-06-04 17:00:00 31.3 22 Sur 65 Sudoeste 0 -- -- 18
2019-06-04 16:00:00 31.3 23 Sudoeste 42 Sur 0 -- -- 20
2019-06-04 15:00:00 30.7 10 Sudoeste 39 Sur 0 -- -- 24
2019-06-04 14:00:00 30.7 19 Sur 37 Sur 0 -- -- 25
2019-06-04 13:00:00 29.1 10 Sur 29 Sudoeste 0 -- -- 25
2019-06-04 12:00:00 27.9 14 Sudoeste 27 Sudoeste 0 -- -- 28
2019-06-04 11:00:00 27 14 Sudoeste 32 Sudoeste 0 -- -- 29
2019-06-04 10:00:00 25.3 17 Sudoeste 35 Sudoeste 0 -- -- 32
2019-06-04 09:00:00 23.1 12 Sudoeste 28 Sudoeste 0 -- -- 36
2019-06-04 08:00:00 20.8 13 Sudoeste 24 Sudoeste 0 -- -- 41
2019-06-04 07:00:00 19.8 20 Sur 31 Sur 0 -- -- 42
2019-06-04 06:00:00 20.7 20 Sur 31 Sur 0 -- -- 39
2019-06-04 05:00:00 20.9 22 Sur 31 Sudoeste 0 -- -- 40
2019-06-04 04:00:00 21.2 22 Sur 36 Sudoeste 0 -- -- 40
2019-06-04 03:00:00 21.5 23 Sudoeste 38 Sudoeste 0 -- -- 41
2019-06-04 02:00:00 21.8 21 Sur 34 Sur 0 -- -- 41
2019-06-04 01:00:00 22.4 19 Sur 35 Sudoeste 0 -- -- 41
2019-06-04 00:00:00 23.3 23 Sur 36 Sudoeste 0 -- -- 39
2019-06-03 23:00:00 23 15 Sur 25 Sur 0 -- -- 41
2019-06-03 22:00:00 23.5 10 Sur 18 Sudoeste 0 -- -- 42
2019-06-03 21:00:00 25.2 6 Sudeste 22 Este 0 -- -- 42
2019-06-03 20:00:00 27.6 14 Este 27 Sudeste 0 -- -- 36
2019-06-03 19:00:00 28.3 15 Este 32 Sudeste 0 -- -- 33
2019-06-03 18:00:00 30 18 Este 35 Sudeste 0 -- -- 28
2019-06-03 17:00:00 29.4 20 Este 38 Este 0 -- -- 31
2019-06-03 16:00:00 28.7 13 Sudeste 25 Este 0 -- -- 30
2019-06-03 15:00:00 28.3 18 Este 27 Este 0 -- -- 32
2019-06-03 14:00:00 30 13 Este 24 Este 0 -- -- 29
2019-06-03 13:00:00 29.3 11 Este 22 Este 0 -- -- 30
2019-06-03 12:00:00 26.7 9 Norte 15 Norte 0 -- -- 34
2019-06-03 11:00:00 25.5 6 Noroeste 16 Noroeste 0 -- -- 36
2019-06-03 10:00:00 25.2 4 Norte 14 Sudoeste 0 -- -- 33
2019-06-03 09:00:00 22.3 9 Sudeste 17 Sudeste 0 -- -- 35
2019-06-03 08:00:00 22.3 6 Sur 27 Sur 0 -- -- 38
2019-06-03 07:00:00 22 15 Sur 32 Sudeste 0 -- -- 34
2019-06-03 06:00:00 20.5 4 Sur 14 Sur 0 -- -- 38
2019-06-03 05:00:00 20.5 3 Sudeste 15 Sur 0 -- -- 38
2019-06-03 04:00:00 22 10 Sudeste 22 Sur 0 -- -- 35
2019-06-03 03:00:00 20.9 4 Sur 12 Oeste 0 -- -- 38
2019-06-03 02:00:00 22.6 4 Nordeste 40 Sudoeste 0 -- -- 36
2019-06-03 01:00:00 22.4 12 Sudeste 24 Sur 0 -- -- 34
2019-06-03 00:00:00 23.2 17 Sur 25 Sur 0 -- -- 34
2019-06-02 23:00:00 23.6 10 Sur 18 Sudeste 0 -- -- 36
2019-06-02 22:00:00 25.7 10 Sur 20 Sur 0 -- -- 34
2019-06-02 21:00:00 27.5 10 Sudeste 24 Este 0 -- -- 32
2019-06-02 20:00:00 29.2 17 Este 29 Nordeste 0 -- -- 26
2019-06-02 19:00:00 30 18 Nordeste 30 Este 0 -- -- 26
2019-06-02 18:00:00 30.6 12 Este 27 Este 0 -- -- 26
2019-06-02 17:00:00 30.7 16 Nordeste 29 Este 0 -- -- 27
2019-06-02 16:00:00 30.6 13 Este 29 Este 0 -- -- 27
2019-06-02 15:00:00 29.9 12 Nordeste 23 Este 0 -- -- 28
2019-06-02 14:00:00 29.4 9 Sudeste 18 Sudeste 0 -- -- 30
2019-06-02 13:00:00 28.5 5 Sur 14 Nordeste 0 -- -- 29
2019-06-02 12:00:00 27 6 Este 13 Norte 0 -- -- 33
2019-06-02 11:00:00 25.8 7 Este 13 Nordeste 0 -- -- 34
2019-06-02 10:00:00 23.9 4 Noroeste 6 Norte 0 -- -- 37
2019-06-02 09:00:00 21.7 0 Calma 3 Este 0 -- -- 42
2019-06-02 08:00:00 18.2 0 Calma 9 Sur 0 -- -- 49
2019-06-02 07:00:00 16.6 9 Sur 14 Sudeste 0 -- -- 50
2019-06-02 06:00:00 16.9 3 Este 20 Sudoeste 0 -- -- 51
2019-06-02 05:00:00 17.6 9 Sudoeste 22 Sudoeste 0 -- -- 49
2019-06-02 04:00:00 18.1 12 Sur 22 Sur 0 -- -- 48
2019-06-02 03:00:00 18.2 6 Sudoeste 16 Sudoeste 0 -- -- 48
2019-06-02 02:00:00 18 5 Sudeste 18 Sur 0 -- -- 52
2019-06-02 01:00:00 19.2 8 Sur 12 Sur 0 -- -- 49
2019-06-02 00:00:00 19.5 8 Sur 20 Sur 0 -- -- 53
2019-06-01 23:00:00 19.9 9 Sudeste 16 Este 0 -- -- 52
2019-06-01 22:00:00 21.9 12 Este 21 Este 0 -- -- 46
2019-06-01 21:00:00 24.9 13 Este 25 Nordeste 0 -- -- 37
2019-06-01 20:00:00 27.2 16 Nordeste 26 Nordeste 0 -- -- 28
2019-06-01 19:00:00 28.1 14 Nordeste 26 Nordeste 0 -- -- 27
2019-06-01 18:00:00 28.7 12 Este 27 Este 0 -- -- 28
2019-06-01 17:00:00 28.7 13 Nordeste 30 Este 0 -- -- 30
2019-06-01 16:00:00 28.2 10 Nordeste 24 Nordeste 0 -- -- 32
2019-06-01 15:00:00 28.2 12 Este 23 Norte 0 -- -- 33
2019-06-01 14:00:00 27.4 9 Norte 19 Norte 0 -- -- 34
2019-06-01 13:00:00 26.8 5 Sudeste 13 Este 0 -- -- 34
2019-06-01 12:00:00 25.2 4 Este 13 Este 0 -- -- 37
2019-06-01 11:00:00 23.4 4 Noroeste 9 Noroeste 0 -- -- 40
2019-06-01 10:00:00 21.7 4 Norte 11 Oeste 0 -- -- 43
2019-06-01 09:00:00 19.4 3 Oeste 8 Sudoeste 0 -- -- 51
2019-06-01 08:00:00 15.3 6 Sur 10 Sur 0 -- -- 67
2019-06-01 07:00:00 13.2 5 Sur 8 Sur 0 -- -- 70
2019-06-01 06:00:00 14.9 7 Sur 9 Sur 0 -- -- 64
2019-06-01 05:00:00 15.7 8 Sur 16 Sur 0 -- -- 62
2019-06-01 04:00:00 15.3 9 Sur 14 Sur 0 -- -- 63
2019-06-01 03:00:00 15.5 9 Sur 13 Sur 0 -- -- 62
2019-06-01 02:00:00 15.6 10 Sur 13 Sur 0 -- -- 58
2019-06-01 01:00:00 15.8 11 Sur 14 Sur 0 -- -- 49
2019-06-01 00:00:00 16.3 9 Sur 13 Sur 0 -- -- 49
2019-05-31 23:00:00 17.3 7 Sur 10 Sur 0 -- -- 47
2019-05-31 22:00:00 20.2 7 Este 10 Nordeste 0 -- -- 38
2019-05-31 21:00:00 23.4 9 Nordeste 22 Norte 0 -- -- 35
2019-05-31 20:00:00 25.4 10 Nordeste 20 Nordeste 0 -- -- 33
2019-05-31 19:00:00 26.2 9 Norte 22 Norte 0 -- -- 33
2019-05-31 18:00:00 26.6 10 Nordeste 19 Norte 0 -- -- 29
2019-05-31 17:00:00 27.2 7 Noroeste 22 Noroeste 0 -- -- 29
2019-05-31 16:00:00 26.4 10 Norte 30 Norte 0 -- -- 32
2019-05-31 15:00:00 25.8 8 Norte 18 Norte 0 -- -- 34
2019-05-31 14:00:00 24.8 7 Nordeste 19 Nordeste 0 -- -- 37
2019-05-31 13:00:00 24.2 8 Norte 18 Oeste 0 -- -- 39
2019-05-31 12:00:00 22.7 5 Noroeste 17 Nordeste 0 -- -- 40
2019-05-31 11:00:00 21.1 5 Nordeste 13 Nordeste 0 -- -- 45
2019-05-31 10:00:00 19.1 3 Este 10 Nordeste 0 -- -- 52
2019-05-31 09:00:00 17.6 5 Nordeste 10 Sur 0 -- -- 59
2019-05-31 08:00:00 12.6 7 Sur 12 Sur 0 -- -- 66
2019-05-31 07:00:00 9.5 6 Sur 9 Sur 0 -- -- 78
2019-05-31 06:00:00 10.1 5 Sur 10 Sur 0 -- -- 71
2019-05-31 05:00:00 10.8 6 Sur 11 Sur 0 -- -- 67
2019-05-31 04:00:00 11.1 5 Sur 10 Sur 0 -- -- 66
2019-05-31 03:00:00 12.2 5 Sur 9 Sur 0 -- -- 61
2019-05-31 02:00:00 13 3 Sudoeste 5 Sudoeste 0 -- -- 59
2019-05-31 01:00:00 14.1 3 Sudoeste 9 Sudoeste 0 -- -- 57
2019-05-31 00:00:00 15.9 3 Sudoeste 12 Sur 0 -- -- 51
2019-05-30 23:00:00 16 9 Sur 12 Sur 0 -- -- 54
2019-05-30 22:00:00 18.9 5 Sur 9 Noroeste 0 -- -- 45
2019-05-30 21:00:00 21.7 5 Norte 13 Norte 0 -- -- 38
2019-05-30 20:00:00 23.9 9 Norte 19 Norte 0 -- -- 31
2019-05-30 19:00:00 24.6 8 Noroeste 27 Noroeste 0 -- -- 30
2019-05-30 18:00:00 24.5 12 Norte 24 Norte 0 -- -- 31
2019-05-30 17:00:00 24.8 12 Noroeste 27 Noroeste 0 -- -- 32
2019-05-30 16:00:00 24 11 Noroeste 26 Noroeste 0 -- -- 34
2019-05-30 15:00:00 23.1 11 Noroeste 24 Norte 0 -- -- 36
2019-05-30 14:00:00 22.1 13 Noroeste 24 Noroeste 0 -- -- 38
2019-05-30 13:00:00 20.5 11 Noroeste 23 Norte 0 -- -- 41
2019-05-30 12:00:00 18.9 11 Noroeste 25 Noroeste 0 -- -- 46
2019-05-30 11:00:00 16.9 9 Noroeste 23 Noroeste 0 -- -- 50
2019-05-30 10:00:00 15.8 12 Noroeste 27 Oeste 0 -- -- 53
2019-05-30 09:00:00 14.3 12 Noroeste 21 Noroeste 0 -- -- 56
2019-05-30 08:00:00 11.1 5 Oeste 8 Oeste 0 -- -- 69
2019-05-30 07:00:00 7.8 3 Sur 8 Sudoeste 0 -- -- 78
2019-05-30 06:00:00 8.1 3 Sudoeste 11 Oeste 0 -- -- 77
2019-05-30 05:00:00 9.3 7 Oeste 12 Sudoeste 0 -- -- 73
2019-05-30 04:00:00 9.9 6 Oeste 16 Oeste 0 -- -- 72
2019-05-30 03:00:00 9.9 6 Oeste 16 Oeste 0 -- -- 76
2019-05-30 02:00:00 10.3 8 Oeste 22 Noroeste 0 -- -- 76
2019-05-30 01:00:00 11.2 15 Noroeste 33 Noroeste 0 -- -- 72
2019-05-30 00:00:00 11.8 13 Noroeste 26 Oeste 0 -- -- 69
2019-05-29 23:00:00 12.5 14 Noroeste 31 Oeste 0 -- -- 67
2019-05-29 22:00:00 13.5 13 Oeste 41 Noroeste 0 -- -- 63
2019-05-29 21:00:00 14.6 23 Noroeste 48 Noroeste 0 -- -- 58
2019-05-29 20:00:00 16 32 Noroeste 55 Noroeste 0 -- -- 52
2019-05-29 19:00:00 17 33 Noroeste 51 Noroeste 0 -- -- 49
2019-05-29 18:00:00 17.6 26 Noroeste 51 Noroeste 0 -- -- 47
2019-05-29 17:00:00 17.6 33 Noroeste 47 Noroeste 0 -- -- 45
2019-05-29 16:00:00 17.5 26 Noroeste 44 Noroeste 0 -- -- 42
2019-05-29 15:00:00 16 25 Noroeste 44 Noroeste 0 -- -- 48
2019-05-29 14:00:00 16.1 28 Noroeste 50 Noroeste 0 -- -- 48
2019-05-29 13:00:00 14.7 31 Noroeste 53 Noroeste 0 -- -- 53
2019-05-29 12:00:00 14.1 32 Noroeste 50 Noroeste 0 -- -- 55
2019-05-29 11:00:00 12.7 26 Noroeste 50 Noroeste 0 -- -- 59
2019-05-29 10:00:00 11.4 23 Noroeste 39 Noroeste 0 -- -- 65
2019-05-29 09:00:00 10.4 23 Noroeste 38 Noroeste 0 -- -- 70
2019-05-29 08:00:00 8.7 15 Noroeste 28 Oeste 0 -- -- 72
2019-05-29 07:00:00 7.6 13 Oeste 35 Noroeste 0 -- -- 74
2019-05-29 06:00:00 7.5 19 Noroeste 44 Noroeste 0 -- -- 77
2019-05-29 05:00:00 7.8 22 Noroeste 43 Noroeste 0 -- -- 74
2019-05-29 04:00:00 8 23 Oeste 44 Oeste 0 -- -- 72
2019-05-29 03:00:00 8.2 23 Oeste 49 Noroeste 0 -- -- 72
2019-05-29 02:00:00 8.7 24 Noroeste 46 Noroeste 0 -- -- 68
2019-05-29 01:00:00 8.8 22 Oeste 43 Noroeste 0 -- -- 71
2019-05-29 00:00:00 9.4 23 Noroeste 50 Oeste 0 -- -- 70
2019-05-28 23:00:00 10 25 Noroeste 44 Noroeste 0 -- -- 64
2019-05-28 22:00:00 10.7 27 Noroeste 51 Noroeste 0 -- -- 60
2019-05-28 21:00:00 11.7 32 Noroeste 53 Noroeste 0 -- -- 60
2019-05-28 20:00:00 13.4 35 Noroeste 55 Noroeste 0 -- -- 58
2019-05-28 19:00:00 14.6 31 Noroeste 54 Noroeste 0 -- -- 55
2019-05-28 18:00:00 16.3 35 Noroeste 53 Noroeste 0 -- -- 47
2019-05-28 17:00:00 16.6 30 Noroeste 50 Noroeste 0 -- -- 46
2019-05-28 16:00:00 16.5 29 Noroeste 51 Noroeste 0 -- -- 48
2019-05-28 15:00:00 16.3 27 Noroeste 48 Noroeste 0 -- -- 49
2019-05-28 14:00:00 16.3 26 Noroeste 47 Noroeste 0 -- -- 48
2019-05-28 13:00:00 15.3 23 Noroeste 53 Noroeste 0 -- -- 48
2019-05-28 12:00:00 13.8 28 Noroeste 54 Noroeste 0 -- -- 52
2019-05-28 11:00:00 12.3 31 Noroeste 50 Noroeste 0 -- -- 56
2019-05-28 10:00:00 11.7 25 Noroeste 48 Noroeste 0 -- -- 58
2019-05-28 09:00:00 10.2 22 Noroeste 41 Noroeste 0 -- -- 65
2019-05-28 08:00:00 8.7 16 Noroeste 33 Oeste 0 -- -- 69
2019-05-28 07:00:00 7.7 13 Oeste 27 Noroeste 0 -- -- 80
2019-05-28 06:00:00 7.9 16 Oeste 38 Noroeste 0 -- -- 78
2019-05-28 05:00:00 8.3 11 Oeste 28 Oeste 0 -- -- 79
2019-05-28 04:00:00 8.9 10 Oeste 30 Noroeste 0 -- -- 75
2019-05-28 03:00:00 9.4 10 Noroeste 37 Oeste 0 -- -- 73
2019-05-28 02:00:00 10 14 Oeste 32 Oeste 0 -- -- 71
2019-05-28 01:00:00 10.7 19 Noroeste 42 Noroeste 0 -- -- 74
2019-05-28 00:00:00 11.9 24 Noroeste 45 Noroeste 0 -- -- 76
2019-05-27 23:00:00 13.2 27 Noroeste 51 Noroeste 0 -- -- 78
2019-05-27 22:00:00 14.4 19 Noroeste 45 Noroeste 0 -- -- 72
2019-05-27 21:00:00 15.8 23 Noroeste 55 Noroeste 0 -- -- 64
2019-05-27 20:00:00 16.6 24 Noroeste 47 Noroeste 0 -- -- 62
2019-05-27 19:00:00 18.5 30 Noroeste 48 Noroeste 0 -- -- 58
2019-05-27 18:00:00 20.2 26 Noroeste 40 Oeste 0 -- -- 52
2019-05-27 17:00:00 21.4 27 Noroeste 46 Noroeste 0 -- -- 48
2019-05-27 16:00:00 21.1 27 Noroeste 44 Noroeste 0 -- -- 48
2019-05-27 15:00:00 20.6 23 Noroeste 39 Noroeste 0 -- -- 52
2019-05-27 14:00:00 19.4 19 Noroeste 37 Noroeste 0 -- -- 51
2019-05-27 13:00:00 17.8 25 Noroeste 42 Noroeste 0 -- -- 56
2019-05-27 12:00:00 17.3 18 Noroeste 33 Noroeste 0 -- -- 58
2019-05-27 11:00:00 14.8 14 Noroeste 24 Noroeste 0 -- -- 66
2019-05-27 10:00:00 12.6 14 Noroeste 32 Noroeste 0 -- -- 76
2019-05-27 09:00:00 10.3 16 Noroeste 31 Noroeste 0 -- -- 85
2019-05-27 08:00:00 9.5 12 Oeste 21 Sudoeste 0 -- -- 89
2019-05-27 07:00:00 9.2 8 Noroeste 23 Noroeste 0 -- -- 90
2019-05-27 06:00:00 9.1 3 Oeste 12 Noroeste 0 -- -- 90
2019-05-27 05:00:00 9 9 Noroeste 16 Noroeste 0 -- -- 90
2019-05-27 04:00:00 9.4 3 Oeste 28 Noroeste 0 -- -- 88
2019-05-27 03:00:00 10.2 11 Noroeste 23 Oeste 0 -- -- 85
2019-05-27 02:00:00 10.3 8 Noroeste 21 Noroeste 0 -- -- 86
2019-05-27 01:00:00 10.4 10 Noroeste 28 Noroeste 0 -- -- 85
2019-05-27 00:00:00 10.9 14 Noroeste 31 Noroeste 0 -- -- 81
2019-05-26 23:00:00 11.5 20 Noroeste 39 Oeste 0 -- -- 77
2019-05-26 22:00:00 12.5 19 Noroeste 36 Noroeste 0 -- -- 74
2019-05-26 21:00:00 14.1 20 Noroeste 41 Noroeste 0 -- -- 67
2019-05-26 20:00:00 15.8 26 Noroeste 48 Noroeste 0 -- -- 59
2019-05-26 19:00:00 16.8 27 Noroeste 40 Noroeste 0 -- -- 58
2019-05-26 18:00:00 17.7 24 Noroeste 41 Noroeste 0 -- -- 54
2019-05-26 17:00:00 17.8 24 Noroeste 42 Noroeste 0 -- -- 54
2019-05-26 16:00:00 17.2 25 Noroeste 44 Noroeste 0 -- -- 56
2019-05-26 15:00:00 16.6 26 Noroeste 42 Oeste 0 -- -- 56
2019-05-26 14:00:00 16.2 24 Noroeste 41 Noroeste 0 -- -- 56
2019-05-26 13:00:00 15.5 23 Noroeste 40 Noroeste 0 -- -- 59
2019-05-26 12:00:00 14.1 23 Noroeste 41 Noroeste 0 -- -- 63
2019-05-26 11:00:00 12.9 22 Noroeste 36 Noroeste 0 -- -- 66
2019-05-26 10:00:00 12.1 23 Noroeste 42 Noroeste 0 -- -- 68
2019-05-26 09:00:00 10.3 20 Noroeste 36 Noroeste 0 -- -- 75
2019-05-26 08:00:00 9.2 15 Oeste 32 Oeste 0 -- -- 78
2019-05-26 07:00:00 7.6 10 Oeste 27 Noroeste 0 -- -- 82
2019-05-26 06:00:00 7.7 13 Noroeste 31 Oeste 0 -- -- 81
2019-05-26 05:00:00 8 14 Oeste 31 Noroeste 0 -- -- 81
2019-05-26 04:00:00 8.1 14 Oeste 36 Noroeste -- -- -- 82
2019-05-26 03:00:00 8.6 19 Noroeste 38 Noroeste 0 -- -- 82
2019-05-26 02:00:00 9 16 Oeste 35 Noroeste 0 -- -- 83
2019-05-26 01:00:00 9.3 12 Oeste 34 Oeste 0 -- -- 81
2019-05-26 00:00:00 10.1 18 Oeste 38 Oeste 0 -- -- 81
2019-05-25 23:00:00 10.9 20 Noroeste 37 Noroeste 0 -- -- 80
2019-05-25 22:00:00 11.4 18 Noroeste 35 Noroeste 0 -- -- 77
2019-05-25 21:00:00 13.1 21 Noroeste 41 Noroeste 0 -- -- 72
2019-05-25 20:00:00 15.1 27 Noroeste 50 Noroeste 0 -- -- 63
2019-05-25 19:00:00 16.7 26 Noroeste 44 Noroeste 0 -- -- 58
2019-05-25 18:00:00 17.1 29 Noroeste 44 Noroeste 0 -- -- 56
2019-05-25 17:00:00 17.4 26 Noroeste 44 Noroeste 0 -- -- 57
2019-05-25 16:00:00 16.8 28 Noroeste 44 Noroeste 0 -- -- 58
2019-05-25 15:00:00 16.4 26 Noroeste 42 Noroeste 0 -- -- 62
2019-05-25 14:00:00 15.2 26 Noroeste 41 Noroeste 0 -- -- 67
2019-05-25 13:00:00 14.7 26 Noroeste 44 Noroeste 0 -- -- 68
2019-05-25 12:00:00 14.1 25 Noroeste 44 Noroeste 0 -- -- 71
2019-05-25 11:00:00 12.7 28 Noroeste 46 Noroeste 0 -- -- 76
2019-05-25 10:00:00 10.9 26 Noroeste 46 Noroeste 0 -- -- 81
2019-05-25 09:00:00 10 23 Noroeste 42 Noroeste 0 -- -- 83
2019-05-25 08:00:00 9.3 24 Noroeste 36 Noroeste 0 -- -- 85
2019-05-25 07:00:00 9 20 Noroeste 36 Noroeste 0 -- -- 85
2019-05-25 06:00:00 9.3 24 Noroeste 41 Noroeste 0 -- -- 84
2019-05-25 05:00:00 9.5 25 Noroeste 45 Noroeste 0 -- -- 84
2019-05-25 04:00:00 9.5 23 Noroeste 44 Noroeste 0 -- -- 85
2019-05-25 03:00:00 9.5 26 Noroeste 46 Noroeste 0 -- -- 87
2019-05-25 02:00:00 9.8 26 Noroeste 42 Noroeste 0 -- -- 87
2019-05-25 01:00:00 10 24 Noroeste 46 Noroeste 0 -- -- 87
2019-05-25 00:00:00 10.4 23 Noroeste 38 Noroeste 0 -- -- 86
2019-05-24 23:00:00 10.8 23 Noroeste 43 Noroeste 0 -- -- 84
2019-05-24 22:00:00 11.3 21 Noroeste 49 Noroeste 0 -- -- 83
2019-05-24 21:00:00 12.2 24 Noroeste 50 Noroeste 0 -- -- 78
2019-05-24 20:00:00 13.3 22 Noroeste 46 Noroeste 0 -- -- 76
2019-05-24 19:00:00 13.8 30 Noroeste 48 Noroeste 0 -- -- 72
2019-05-24 18:00:00 14.4 26 Noroeste 42 Noroeste 0 -- -- 72
2019-05-24 17:00:00 14.1 29 Noroeste 44 Noroeste 0 -- -- 75
2019-05-24 16:00:00 13.2 24 Noroeste 41 Noroeste 0 -- -- 79
2019-05-24 15:00:00 12.1 24 Noroeste 39 Noroeste 0 -- -- 83
2019-05-24 14:00:00 11.6 19 Noroeste 35 Noroeste 0 -- -- 89
2019-05-24 13:00:00 11 18 Noroeste 28 Noroeste 1 -- -- 96
2019-05-24 12:00:00 9.9 13 Noroeste 33 Noroeste 2.6 -- -- 97
2019-05-24 11:00:00 9.6 19 Noroeste 33 Noroeste 2.4 -- -- 97
2019-05-24 10:00:00 9.8 17 Noroeste 29 Noroeste 0.2 -- -- 97
2019-05-24 09:00:00 9.8 15 Noroeste 30 Noroeste 1.2 -- -- 96
2019-05-24 08:00:00 9.8 15 Noroeste 29 Oeste 3.8 -- -- 97
2019-05-24 07:00:00 10.4 11 Noroeste 22 Noroeste 0 -- -- 97
2019-05-24 06:00:00 10.7 12 Noroeste 19 Noroeste 0 -- -- 96
2019-05-24 05:00:00 10.8 14 Noroeste 22 Noroeste 0 -- -- 93
2019-05-24 04:00:00 11.1 7 Noroeste 21 Noroeste 0 -- -- 91
2019-05-24 03:00:00 12.1 12 Noroeste 23 Noroeste 0 -- -- 90
2019-05-24 02:00:00 13.8 4 Noroeste 12 Nordeste 0 -- -- 89
2019-05-24 01:00:00 14.4 4 Sudoeste 17 Sudoeste 0.8 -- -- 86
2019-05-24 00:00:00 15.2 8 Noroeste 20 Oeste 0 -- -- 81
2019-05-23 23:00:00 15.9 8 Sudoeste 36 Sudoeste 0.6 -- -- 76
2019-05-23 22:00:00 17.4 11 Oeste 40 Noroeste 0 -- -- 67
2019-05-23 21:00:00 19.8 4 Noroeste 16 Norte 0 -- -- 49
2019-05-23 20:00:00 21.5 12 Norte 26 Norte 0 -- -- 42
2019-05-23 19:00:00 23.8 9 Nordeste 15 Este 0 -- -- 35
2019-05-23 18:00:00 23.7 4 Este 14 Sudeste 0 -- -- 35
2019-05-23 17:00:00 23.7 6 Este 18 Este 0 -- -- 36
2019-05-23 16:00:00 24.6 5 Noroeste 17 Norte 0 -- -- 34
2019-05-23 15:00:00 24.5 10 Norte 23 Norte 0 -- -- 35
2019-05-23 14:00:00 24.2 8 Norte 19 Noroeste 0 -- -- 36
2019-05-23 13:00:00 23.5 8 Norte 18 Nordeste 0 -- -- 39
2019-05-23 12:00:00 23 7 Este 16 Este 0 -- -- 44
2019-05-23 11:00:00 20.9 5 Nordeste 12 Este 0 -- -- 49
2019-05-23 10:00:00 19.4 8 Este 12 Este 0 -- -- 53
2019-05-23 09:00:00 17.7 5 Este 13 Sur 0 -- -- 59
2019-05-23 08:00:00 15.5 3 Sur 12 Sur 0 -- -- 71
2019-05-23 07:00:00 12.6 10 Sur 16 Sur 0 -- -- 71
2019-05-23 06:00:00 12.1 13 Sur 16 Sur 0 -- -- 57
2019-05-23 05:00:00 12.4 13 Sur 17 Sur 0 -- -- 55
2019-05-23 04:00:00 12.6 12 Sur 15 Sur 0 -- -- 54
2019-05-23 03:00:00 12.9 9 Sur 13 Sur 0 -- -- 54
2019-05-23 02:00:00 12.4 7 Sur 12 Sur 0 -- -- 55
2019-05-23 01:00:00 13 7 Sur 10 Sur 0 -- -- 55
2019-05-23 00:00:00 13.7 6 Sur 10 Sur 0 -- -- 53
2019-05-22 23:00:00 14.5 4 Sur 6 Sur 0 -- -- 52
2019-05-22 22:00:00 17 3 Nordeste 9 Nordeste 0 -- -- 45
2019-05-22 21:00:00 19.7 8 Este 19 Nordeste 0 -- -- 37
2019-05-22 20:00:00 22 7 Nordeste 18 Nordeste 0 -- -- 36
2019-05-22 19:00:00 22.9 10 Norte 23 Norte 0 -- -- 36
2019-05-22 18:00:00 22.9 8 Nordeste 24 Norte 0 -- -- 35
2019-05-22 17:00:00 23.5 12 Noroeste 28 Norte 0 -- -- 34
2019-05-22 16:00:00 22.9 15 Noroeste 37 Noroeste 0 -- -- 35
2019-05-22 15:00:00 22.4 17 Noroeste 32 Noroeste 0 -- -- 37
2019-05-22 14:00:00 21.8 14 Noroeste 24 Norte 0 -- -- 38
2019-05-22 13:00:00 19.6 10 Norte 20 Norte 0 -- -- 43
2019-05-22 12:00:00 18.7 6 Noroeste 13 Noroeste 0 -- -- 43
2019-05-22 11:00:00 16.8 7 Nordeste 14 Nordeste 0 -- -- 46
2019-05-22 10:00:00 14.9 3 Este 8 Este 0 -- -- 48
2019-05-22 09:00:00 12.8 5 Nordeste 9 Norte 0 -- -- 54
2019-05-22 08:00:00 9.8 6 Este 9 Sur 0 -- -- 66
2019-05-22 07:00:00 6.7 3 Sur 9 Sur 0 -- -- 76
2019-05-22 06:00:00 7.8 8 Sur 10 Sur 0 -- -- 71
2019-05-22 05:00:00 7.6 5 Sur 8 Sur 0 -- -- 70
2019-05-22 04:00:00 8.9 3 Sur 7 Sudoeste 0 -- -- 61
2019-05-22 03:00:00 10.3 5 Sudoeste 8 Sudoeste 0 -- -- 55
2019-05-22 02:00:00 11.3 4 Oeste 11 Oeste 0 -- -- 50
2019-05-22 01:00:00 11.7 5 Oeste 14 Oeste 0 -- -- 51
2019-05-22 00:00:00 12 6 Oeste 12 Oeste 0 -- -- 53